createdAt,value
2022-11-06T00:04:38.594Z,0
2022-11-06T00:09:38.617Z,0
2022-11-06T00:14:38.517Z,0
2022-11-06T00:19:38.503Z,0
2022-11-06T00:24:38.550Z,0
2022-11-06T00:29:38.490Z,0
2022-11-06T00:34:38.708Z,0
2022-11-06T00:39:38.541Z,0
2022-11-06T00:44:38.688Z,0
2022-11-06T00:49:38.655Z,0
2022-11-06T00:54:38.693Z,0
2022-11-06T00:59:38.631Z,0
2022-11-06T01:04:38.583Z,0
2022-11-06T01:09:38.757Z,0
2022-11-06T01:14:38.546Z,0
2022-11-06T01:19:38.513Z,0
2022-11-06T01:24:38.653Z,0
2022-11-06T01:29:38.726Z,0
2022-11-06T01:34:38.540Z,0
2022-11-06T01:39:38.439Z,0
2022-11-06T01:44:38.518Z,0
2022-11-06T01:49:38.551Z,0
2022-11-06T01:54:38.386Z,0
2022-11-06T01:59:38.495Z,0
2022-11-06T02:04:38.527Z,0
2022-11-06T02:09:38.825Z,0
2022-11-06T02:14:38.578Z,0
2022-11-06T02:19:38.357Z,0
2022-11-06T02:24:51.594Z,0
2022-11-06T02:29:38.420Z,0
2022-11-06T02:34:39.118Z,0
2022-11-06T02:39:40.151Z,0
2022-11-06T02:44:38.416Z,0
2022-11-06T02:49:38.411Z,0
2022-11-06T02:54:38.420Z,0
2022-11-06T02:59:38.514Z,0
2022-11-06T03:04:38.484Z,0
2022-11-06T03:09:38.608Z,0
2022-11-06T03:14:38.289Z,0
2022-11-06T03:19:38.237Z,0
2022-11-06T03:24:38.398Z,0
2022-11-06T03:29:38.319Z,0
2022-11-06T03:34:38.350Z,0
2022-11-06T03:39:41.521Z,0
2022-11-06T03:44:38.536Z,0
2022-11-06T03:49:38.289Z,0
2022-11-06T03:54:38.329Z,0
2022-11-06T03:59:38.289Z,0
2022-11-06T04:04:42.640Z,0
2022-11-06T04:09:38.315Z,0
2022-11-06T04:14:38.185Z,0
2022-11-06T04:19:38.273Z,0
2022-11-06T04:24:38.387Z,0
2022-11-06T04:29:38.212Z,0
2022-11-06T04:34:41.819Z,0
2022-11-06T04:39:38.340Z,0
2022-11-06T04:44:38.416Z,0
2022-11-06T04:49:38.296Z,0
2022-11-06T04:54:38.281Z,0
2022-11-06T04:59:38.270Z,0
2022-11-06T05:04:38.410Z,0
2022-11-06T05:09:38.534Z,0
2022-11-06T05:14:38.101Z,0
2022-11-06T05:19:38.197Z,0
2022-11-06T05:24:38.078Z,0
2022-11-06T05:29:38.556Z,0
2022-11-06T05:34:38.165Z,0
2022-11-06T05:39:41.853Z,0
2022-11-06T05:44:38.436Z,0
2022-11-06T05:49:38.259Z,0
2022-11-06T05:54:38.362Z,0
2022-11-06T05:59:38.178Z,0
2022-11-06T06:04:38.148Z,0
2022-11-06T06:09:38.276Z,0
2022-11-06T06:14:38.385Z,0
2022-11-06T06:19:38.111Z,0
2022-11-06T06:24:38.364Z,0
2022-11-06T06:29:38.177Z,0
2022-11-06T06:34:38.047Z,0
2022-11-06T06:39:38.299Z,0
2022-11-06T06:44:38.187Z,0
2022-11-06T06:49:38.053Z,0.5
2022-11-06T06:54:38.334Z,1.7
2022-11-06T06:59:38.341Z,3.8
2022-11-06T07:04:38.288Z,5.7
2022-11-06T07:09:38.057Z,8
2022-11-06T07:14:38.216Z,10.8
2022-11-06T07:19:38.377Z,13.5
2022-11-06T07:24:37.971Z,16.8
2022-11-06T07:29:38.161Z,19.3
2022-11-06T07:34:38.556Z,19.5
2022-11-06T07:39:38.078Z,20.8
2022-11-06T07:44:38.253Z,24.7
2022-11-06T07:49:38.172Z,35.5
2022-11-06T07:54:37.929Z,51.9
2022-11-06T07:59:38.078Z,71.8
2022-11-06T08:04:38.305Z,88.4
2022-11-06T08:09:38.260Z,107.1
2022-11-06T08:14:41.396Z,118
2022-11-06T08:19:38.284Z,107.9
2022-11-06T08:24:38.187Z,88.1
2022-11-06T08:29:41.329Z,76.7
2022-11-06T08:34:38.039Z,77
2022-11-06T08:39:38.278Z,84.3
2022-11-06T08:44:38.133Z,92.2
2022-11-06T08:49:37.961Z,101.9
2022-11-06T08:54:38.161Z,101.4
2022-11-06T08:59:38.263Z,94.1
2022-11-06T09:04:41.375Z,106.4
2022-11-06T09:09:38.043Z,122.2
2022-11-06T09:14:37.875Z,113
2022-11-06T09:19:37.945Z,114.5
2022-11-06T09:25:01.803Z,100.8
2022-11-06T09:29:38.134Z,76.3
2022-11-06T09:34:38.301Z,73.7
2022-11-06T09:39:38.148Z,66.7
2022-11-06T09:44:38.102Z,71.4
2022-11-06T09:49:40.631Z,71.3
2022-11-06T09:54:38.093Z,58.9
2022-11-06T09:59:38.189Z,52.9
2022-11-06T10:04:40.835Z,51.9
2022-11-06T10:09:37.991Z,57.2
2022-11-06T10:14:37.908Z,54.6
2022-11-06T10:19:38.020Z,53.1
2022-11-06T10:24:37.921Z,54.8
2022-11-06T10:29:38.127Z,58
2022-11-06T10:34:37.848Z,65.4
2022-11-06T10:39:38.633Z,88.3
2022-11-06T10:44:37.869Z,97.1
2022-11-06T10:49:38.108Z,90.6
2022-11-06T10:54:38.045Z,84.8
2022-11-06T10:59:37.925Z,66.3
2022-11-06T11:04:38.088Z,53.8
2022-11-06T11:09:38.034Z,62.3
2022-11-06T11:14:37.914Z,76.2
2022-11-06T11:19:37.941Z,61.9
2022-11-06T11:24:38.042Z,53.5
2022-11-06T11:29:38.044Z,52.1
2022-11-06T11:34:37.844Z,47.2
2022-11-06T11:39:38.064Z,43.5
2022-11-06T11:44:37.906Z,37.6
2022-11-06T11:49:37.973Z,37.7
2022-11-06T11:54:37.941Z,43.1
2022-11-06T11:59:38.076Z,45.8
2022-11-06T12:04:37.743Z,49.5
2022-11-06T12:09:37.842Z,56.4
2022-11-06T12:14:37.978Z,54.2
2022-11-06T12:19:37.914Z,49
2022-11-06T12:34:06.907Z,42.6
2022-11-06T12:34:25.311Z,42.6
2022-11-06T12:34:46.991Z,42.6
2022-11-06T12:39:39.650Z,36.2
2022-11-06T12:44:37.817Z,42.3
2022-11-06T12:49:37.806Z,54.6
2022-11-06T12:54:37.879Z,65.8
2022-11-06T12:59:37.803Z,53.8
2022-11-06T13:04:37.840Z,39.5
2022-11-06T13:09:37.740Z,30.1
2022-11-06T13:14:37.624Z,25.6
2022-11-06T13:19:37.972Z,26.7
2022-11-06T13:24:37.997Z,22.8
2022-11-06T13:29:37.699Z,19.2
2022-11-06T13:34:37.824Z,16.2
2022-11-06T13:39:37.765Z,12.2
2022-11-06T13:44:37.734Z,10
2022-11-06T13:49:37.903Z,10.7
2022-11-06T13:54:37.686Z,10.6
2022-11-06T13:59:37.684Z,10.4
2022-11-06T14:04:37.929Z,10
2022-11-06T14:09:37.940Z,9.4
2022-11-06T14:14:37.589Z,9.6
2022-11-06T14:19:37.876Z,9.3
2022-11-06T14:24:37.835Z,9.5
2022-11-06T14:29:37.980Z,8
2022-11-06T14:34:38.700Z,7.5
2022-11-06T14:39:37.759Z,6.5
2022-11-06T14:44:37.773Z,6.7
2022-11-06T14:49:37.747Z,6.9
2022-11-06T14:54:37.652Z,6.2
2022-11-06T14:59:37.715Z,5.1
2022-11-06T15:04:37.677Z,4.9
2022-11-06T15:09:37.561Z,5
2022-11-06T15:14:37.719Z,4.3
2022-11-06T15:19:40.070Z,3.4
2022-11-06T15:24:37.704Z,2.8
2022-11-06T15:29:37.522Z,2.1
2022-11-06T15:34:39.266Z,1.5
2022-11-06T15:39:37.830Z,0.8
2022-11-06T15:44:38.715Z,0.3
2022-11-06T15:49:37.824Z,0.1
2022-11-06T15:54:37.560Z,0
2022-11-06T15:59:37.576Z,0
2022-11-06T16:04:37.525Z,0
2022-11-06T16:09:39.819Z,0
2022-11-06T16:14:37.739Z,0
2022-11-06T16:19:37.452Z,0
2022-11-06T16:24:40.344Z,0
2022-11-06T16:29:37.605Z,0
2022-11-06T16:34:37.558Z,0
2022-11-06T16:39:48.894Z,0
2022-11-06T16:44:37.506Z,0
2022-11-06T16:49:37.643Z,0
2022-11-06T16:54:37.601Z,0
2022-11-06T16:59:37.506Z,0
2022-11-06T17:04:37.434Z,0
2022-11-06T17:09:37.481Z,0
2022-11-06T17:14:37.373Z,0
2022-11-06T17:19:38.035Z,0
2022-11-06T17:24:38.196Z,0
2022-11-06T17:29:37.370Z,0
2022-11-06T17:34:37.772Z,0
2022-11-06T17:39:38.361Z,0
2022-11-06T17:44:37.428Z,0
2022-11-06T17:49:37.621Z,0
2022-11-06T17:54:37.491Z,0
2022-11-06T17:59:37.577Z,0
2022-11-06T18:04:37.665Z,0
2022-11-06T18:09:37.393Z,0
2022-11-06T18:14:37.431Z,0
2022-11-06T18:19:37.487Z,0
2022-11-06T18:24:37.418Z,0
2022-11-06T18:29:37.559Z,0
2022-11-06T18:34:37.455Z,0
2022-11-06T18:39:37.581Z,0
2022-11-06T18:44:37.560Z,0
2022-11-06T18:49:37.670Z,0
2022-11-06T18:54:37.528Z,0
2022-11-06T18:59:37.301Z,0
2022-11-06T19:04:37.619Z,0
2022-11-06T19:09:37.341Z,0
2022-11-06T19:14:37.760Z,0
2022-11-06T19:19:37.423Z,0
2022-11-06T19:24:37.322Z,0
2022-11-06T19:29:37.583Z,0
2022-11-06T19:34:39.325Z,0
2022-11-06T19:39:37.340Z,0
2022-11-06T19:44:37.380Z,0
2022-11-06T19:49:37.758Z,0
2022-11-06T19:54:37.214Z,0
2022-11-06T19:59:37.794Z,0
2022-11-06T20:04:37.379Z,0
2022-11-06T20:09:37.294Z,0
2022-11-06T20:14:37.188Z,0
2022-11-06T20:19:37.461Z,0
2022-11-06T20:24:37.279Z,0
2022-11-06T20:29:37.150Z,0
2022-11-06T20:34:37.297Z,0
2022-11-06T20:39:37.156Z,0
2022-11-06T20:44:37.290Z,0
2022-11-06T20:49:37.132Z,0
2022-11-06T20:54:39.234Z,0
2022-11-06T20:59:37.142Z,0
2022-11-06T21:04:37.463Z,0
2022-11-06T21:09:37.185Z,0
2022-11-06T21:14:37.137Z,0
2022-11-06T21:19:37.452Z,0
2022-11-06T21:24:37.112Z,0
2022-11-06T21:29:37.259Z,0
2022-11-06T21:34:37.483Z,0
2022-11-06T21:39:37.360Z,0
2022-11-06T21:44:37.270Z,0
2022-11-06T21:49:37.101Z,0
2022-11-06T21:54:37.104Z,0
2022-11-06T21:59:41.476Z,0
2022-11-06T22:04:37.202Z,0
2022-11-06T22:09:37.357Z,0
2022-11-06T22:14:37.303Z,0
2022-11-06T22:19:37.081Z,0
2022-11-06T22:24:37.006Z,0
2022-11-06T22:29:37.201Z,0
2022-11-06T22:34:37.162Z,0
2022-11-06T22:39:37.198Z,0
2022-11-06T22:44:37.063Z,0
2022-11-06T22:49:37.035Z,0
2022-11-06T22:54:37.207Z,0
2022-11-06T22:59:37.205Z,0
2022-11-06T23:04:37.010Z,0
2022-11-06T23:09:36.964Z,0
2022-11-06T23:14:37.222Z,0
2022-11-06T23:19:37.314Z,0
2022-11-06T23:24:37.173Z,0
2022-11-06T23:29:37.020Z,0
2022-11-06T23:34:36.992Z,0
2022-11-06T23:39:37.234Z,0
2022-11-06T23:44:37.297Z,0
2022-11-06T23:49:37.076Z,0
2022-11-06T23:54:37.179Z,0
2022-11-06T23:59:37.263Z,0
